Time;durP1;ratioP1;P1;durP2;ratioP2;P2;SDS_P1;SDS_P2;PMS_P1;PMS_P2;Temp;Humidity;BMP_temperature;BMP_pressure;BME280_temperature;BME280_humidity;BME280_pressure;Samples;Min_cycle;Max_cycle;Signal;HPM_P1;HPM_P2
2022/07/03 00:01:40;;;;;;;5.85;2.67;;;;;;;19.39;50.06;99880.16;1743562;82;20941;-44
2022/07/03 00:04:07;;;;;;;4.65;2.98;;;;;;;19.39;49.87;99880.94;1743631;81;20930;-44
2022/07/03 00:06:34;;;;;;;4.03;2.58;;;;;;;19.36;49.70;99878.23;1743601;82;21017;-44
2022/07/03 00:09:04;;;;;;;4.08;2.83;;;;;;;19.35;49.54;99877.45;1743628;81;21045;-44
2022/07/03 00:11:32;;;;;;;;;;;;;;;19.33;49.54;99877.05;1710520;83;21215;-44
2022/07/03 00:13:59;;;;;;;5.12;2.37;;;;;;;19.32;49.97;99883.73;1694871;84;20102;-44
2022/07/03 00:16:26;;;;;;;3.10;2.12;;;;;;;19.19;50.66;99884.63;1694615;84;20940;-44
2022/07/03 00:18:54;;;;;;;4.15;2.50;;;;;;;19.17;50.10;99876.78;1707931;84;21583;-44
2022/07/03 00:21:28;;;;;;;3.90;2.40;;;;;;;19.18;50.29;99876.98;1707586;84;21053;-44
2022/07/03 00:24:03;;;;;;;4.40;2.37;;;;;;;19.16;50.72;99872.50;1707553;84;21142;-43
2022/07/03 00:26:33;;;;;;;5.97;2.67;;;;;;;19.16;50.68;99873.87;1707476;84;21025;-43
2022/07/03 00:29:01;;;;;;;3.67;2.52;;;;;;;19.15;50.43;99870.14;1707841;83;20974;-43
2022/07/03 00:31:32;;;;;;;8.15;2.50;;;;;;;19.13;50.25;99866.41;1707527;84;20959;-44
2022/07/03 00:34:01;;;;;;;4.25;2.67;;;;;;;19.13;50.57;99865.63;1707910;84;21042;-44
2022/07/03 00:36:32;;;;;;;3.43;2.43;;;;;;;19.10;50.67;99861.73;1705546;84;21831;-44
2022/07/03 00:38:59;;;;;;;3.95;2.65;;;;;;;19.07;50.46;99863.31;1700393;84;21512;-44
2022/07/03 00:41:28;;;;;;;4.78;2.70;;;;;;;19.05;50.48;99860.80;1701753;84;21114;-43
2022/07/03 00:43:56;;;;;;;5.78;3.10;;;;;;;19.04;50.54;99860.59;1713282;83;21560;-44
2022/07/03 00:46:24;;;;;;;4.45;2.50;;;;;;;19.01;51.28;99856.70;1700695;84;21507;-44
2022/07/03 00:48:52;;;;;;;4.30;2.50;;;;;;;18.99;51.17;99856.91;1713159;83;21113;-44
2022/07/03 00:51:29;;;;;;;2.98;2.42;;;;;;;18.98;51.34;99858.09;1700613;84;21013;-44
2022/07/03 00:53:58;;;;;;;7.53;2.90;;;;;;;18.98;51.37;99862.20;1713401;83;21020;-44
2022/07/03 00:56:29;;;;;;;5.33;2.52;;;;;;;18.96;51.30;99857.72;1700808;84;21073;-44
2022/07/03 00:59:00;;;;;;;3.20;2.15;;;;;;;18.95;51.02;99857.53;1713261;83;21004;-44
2022/07/03 01:01:34;;;;;;;3.85;2.33;;;;;;;18.96;50.02;99852.23;1700890;84;21103;-44
2022/07/03 01:04:16;;;;;;;4.70;2.50;;;;;;;18.96;49.75;99848.89;1713091;83;20992;-44
2022/07/03 01:06:51;;;;;;;3.77;2.50;;;;;;;18.98;49.77;99851.22;1700334;84;20960;-43
2022/07/03 01:09:24;;;;;;;4.67;2.30;;;;;;;18.97;49.91;99843.59;1684603;84;21612;-44
2022/07/03 01:12:06;;;;;;;4.85;2.72;;;;;;;18.98;49.93;99849.25;1685123;84;21073;-44
2022/07/03 01:15:06;;;;;;;3.52;2.47;;;;;;;18.98;50.36;99847.87;1713060;83;21270;-43
2022/07/03 01:17:40;;;;;;;6.00;2.55;;;;;;;18.97;50.05;99840.84;1700770;84;20926;-44
2022/07/03 01:20:07;;;;;;;4.50;2.52;;;;;;;18.95;50.18;99845.16;1713143;83;21024;-44
2022/07/03 01:22:37;;;;;;;5.55;2.33;;;;;;;18.93;50.40;99850.27;1700363;84;21060;-44
2022/07/03 01:25:43;;;;;;;5.60;2.52;;;;;;;18.90;50.01;99855.99;1713207;83;21044;-43
2022/07/03 01:28:16;;;;;;;2.95;2.20;;;;;;;18.90;50.03;99845.59;1700373;84;23107;-43
2022/07/03 01:30:48;;;;;;;6.25;2.72;;;;;;;18.87;50.80;99856.02;1713016;83;21084;-44
2022/07/03 01:33:27;;;;;;;8.13;2.70;;;;;;;18.84;50.15;99860.93;1693971;84;20997;-43
2022/07/03 01:36:08;;;;;;;2.85;1.72;;;;;;;18.80;50.69;99853.31;1694402;84;21036;-43
2022/07/03 01:38:39;;;;;;;4.85;2.30;;;;;;;18.77;51.02;99859.62;1688910;84;21483;-44
2022/07/03 01:41:09;;;;;;;6.00;2.50;;;;;;;18.72;51.20;99862.79;1693694;84;21110;-44
2022/07/03 01:43:43;;;;;;;5.62;2.40;;;;;;;18.71;51.48;99861.22;1691208;84;21518;-44
2022/07/03 01:46:10;;;;;;;3.95;1.90;;;;;;;18.70;51.67;99862.39;1691444;84;20976;-44
2022/07/03 01:48:38;;;;;;;5.72;2.52;;;;;;;18.68;51.44;99867.53;1691223;84;21096;-44
2022/07/03 01:51:05;;;;;;;6.03;2.70;;;;;;;18.63;51.92;99864.02;1713833;82;21014;-44
2022/07/03 01:53:32;;;;;;;4.85;2.42;;;;;;;18.60;52.80;99865.39;1742981;82;21219;-43
2022/07/03 01:56:00;;;;;;;5.17;2.22;;;;;;;18.57;53.21;99866.99;1742906;82;20933;-43
2022/07/03 01:58:27;;;;;;;4.08;2.40;;;;;;;18.55;53.32;99863.85;1743051;82;20977;-44
2022/07/03 02:01:08;;;;;;;4.78;2.25;;;;;;;18.54;53.47;99871.14;1742758;82;21592;-44
2022/07/03 02:03:37;;;;;;;4.67;2.27;;;;;;;18.49;53.38;99862.67;1737069;82;21052;-44
2022/07/03 02:06:45;;;;;;;6.22;2.67;;;;;;;18.44;53.40;99863.12;1714428;82;21211;-43
2022/07/03 02:09:12;;;;;;;4.10;2.60;;;;;;;18.42;53.59;99866.84;1742908;82;20922;-43
2022/07/03 02:11:43;;;;;;;5.25;2.70;;;;;;;18.36;53.80;99862.16;1743108;82;21025;-43
2022/07/03 02:14:20;;;;;;;6.47;2.52;;;;;;;18.35;53.34;99865.48;1748859;82;20999;-44
2022/07/03 02:17:12;;;;;;;4.37;2.62;;;;;;;18.34;53.29;99863.95;1748352;82;21028;-44
2022/07/03 02:19:56;;;;;;;4.37;2.50;;;;;;;18.33;53.63;99865.13;1748889;82;21144;-43
2022/07/03 02:22:40;;;;;;;5.00;2.37;;;;;;;18.32;53.82;99858.65;1748491;82;21479;-43
2022/07/03 02:25:18;;;;;;;4.15;2.42;;;;;;;18.31;53.50;99851.00;1748735;82;20977;-43
2022/07/03 02:28:02;;;;;;;3.22;2.17;;;;;;;18.33;53.56;99849.23;1748922;82;20964;-44
2022/07/03 02:30:30;;;;;;;2.70;2.40;;;;;;;18.33;53.50;99850.02;1748700;82;21451;-44
2022/07/03 02:32:59;;;;;;;5.58;2.60;;;;;;;18.34;53.56;99845.32;1748980;82;21113;-43
2022/07/03 02:35:29;;;;;;;3.45;2.55;;;;;;;18.37;53.68;99848.04;1749134;82;21562;-44
2022/07/03 02:38:19;;;;;;;4.60;2.70;;;;;;;18.38;53.84;99845.48;1748950;82;21028;-44
2022/07/03 02:41:09;;;;;;;3.83;2.37;;;;;;;18.42;54.06;99840.77;1719910;82;21036;-43
2022/07/03 02:43:59;;;;;;;4.70;2.60;;;;;;;18.44;54.02;99848.61;1749128;82;21000;-43
2022/07/03 02:46:49;;;;;;;6.15;2.40;;;;;;;18.47;53.98;99845.05;1748752;82;21238;-43
2022/07/03 02:49:50;;;;;;;4.70;2.52;;;;;;;18.51;54.28;99841.09;1748787;82;20924;-43
2022/07/03 02:52:32;;;;;;;5.12;2.27;;;;;;;18.55;54.41;99849.34;1748550;82;20969;-43
2022/07/03 02:55:43;;;;;;;4.10;2.70;;;;;;;18.57;54.17;99846.40;1748726;82;20997;-43
2022/07/03 02:58:45;;;;;;;4.85;2.58;;;;;;;18.61;54.50;99838.12;1748826;82;21020;-43
2022/07/03 03:01:36;;;;;;;5.60;2.20;;;;;;;18.64;54.36;99845.55;1748634;82;21235;-43
2022/07/03 03:04:30;;;;;;;4.83;2.25;;;;;;;18.69;54.29;99849.88;1748881;82;20972;-44
2022/07/03 03:07:09;;;;;;;6.53;2.50;;;;;;;18.74;52.99;99843.92;1748853;82;21102;-44
2022/07/03 03:09:42;;;;;;;4.60;2.12;;;;;;;18.77;52.58;99841.77;1748751;82;20993;-44
2022/07/03 03:12:12;;;;;;;3.62;2.40;;;;;;;18.80;51.68;99840.36;1748802;82;21059;-44
2022/07/03 03:14:44;;;;;;;4.60;2.70;;;;;;;18.84;51.75;99851.31;1748994;82;21075;-44
2022/07/03 03:17:19;;;;;;;4.53;2.30;;;;;;;18.90;51.99;99845.59;1748730;82;21029;-44
2022/07/03 03:19:49;;;;;;;2.30;2.10;;;;;;;18.95;51.40;99845.16;1749178;82;20933;-43
2022/07/03 03:22:47;;;;;;;4.45;2.40;;;;;;;19.01;52.47;99847.09;1748964;82;20980;-43
2022/07/03 03:25:14;;;;;;;4.20;2.33;;;;;;;19.09;52.37;99840.93;1748866;82;21016;-43
2022/07/03 03:27:42;;;;;;;3.77;2.15;;;;;;;19.15;52.17;99837.94;1720079;82;21935;-43
2022/07/03 03:30:10;;;;;;;3.52;2.50;;;;;;;19.21;51.65;99841.83;1748794;82;21072;-43
2022/07/03 03:32:38;;;;;;;4.30;2.30;;;;;;;19.27;51.44;99847.64;1749069;82;21068;-43
2022/07/03 03:35:07;;;;;;;3.62;2.55;;;;;;;19.30;51.08;99842.14;1719806;82;20976;-43
2022/07/03 03:37:34;;;;;;;5.65;2.67;;;;;;;19.35;51.19;99846.42;1749096;82;21063;-43
2022/07/03 03:40:04;;;;;;;3.20;2.40;;;;;;;19.38;51.52;99847.75;1748785;82;21189;-43
2022/07/03 03:42:31;;;;;;;4.50;2.30;;;;;;;19.43;51.41;99849.28;1752811;81;20977;-43
2022/07/03 03:44:59;;;;;;;7.37;2.40;;;;;;;19.46;51.16;99851.27;1756828;81;21229;-43
2022/07/03 03:47:26;;;;;;;2.92;2.17;;;;;;;19.49;50.76;99848.47;1756737;81;20994;-43
2022/07/03 03:49:53;;;;;;;3.62;2.37;;;;;;;19.51;51.06;99851.58;1756857;81;21037;-43
2022/07/03 03:52:20;;;;;;;14.98;2.72;;;;;;;19.54;51.16;99841.75;1694297;83;21253;-43
2022/07/03 03:57:21;;;;;;;6.05;2.50;;;;;;;19.65;51.48;99843.02;1774350;79;22598;-43
2022/07/03 03:59:48;;;;;;;5.97;2.83;;;;;;;19.57;51.76;99843.67;1746752;82;20935;-44
2022/07/03 04:02:15;;;;;;;4.03;2.58;;;;;;;19.66;51.75;99850.06;1746749;82;21216;-44
2022/07/03 04:04:42;;;;;;;4.75;2.30;;;;;;;19.73;51.49;99848.63;1746739;82;20967;-44
2022/07/03 04:07:09;;;;;;;5.05;2.30;;;;;;;19.77;51.54;99845.23;1746672;82;21010;-44
2022/07/03 04:09:37;;;;;;;4.90;2.33;;;;;;;19.81;51.64;99848.73;1746696;82;20963;-44
2022/07/03 04:12:05;;;;;;;6.78;2.22;;;;;;;19.82;51.64;99848.33;1746579;82;20907;-44
2022/07/03 04:14:34;;;;;;;3.87;2.30;;;;;;;19.85;51.60;99853.59;1746432;82;21014;-44
2022/07/03 04:17:01;;;;;;;3.47;2.05;;;;;;;19.90;51.66;99846.27;1746435;82;20975;-44
2022/07/03 04:19:28;;;;;;;3.90;2.42;;;;;;;19.96;51.69;99846.00;1746334;82;21090;-44
2022/07/03 04:21:56;;;;;;;5.15;2.35;;;;;;;20.00;51.83;99843.98;1746479;82;20952;-44
2022/07/03 04:24:24;;;;;;;6.40;2.30;;;;;;;20.02;51.98;99834.73;1746434;82;21074;-44
2022/07/03 04:26:51;;;;;;;6.30;2.52;;;;;;;20.01;52.49;99834.55;1746543;82;21124;-44
2022/07/03 04:29:17;;;;;;;7.10;2.47;;;;;;;20.02;52.29;99823.73;1746341;82;20983;-44
2022/07/03 04:31:46;;;;;;;3.33;2.27;;;;;;;20.05;52.74;99833.91;1746512;82;21070;-44
2022/07/03 04:34:13;;;;;;;2.52;2.17;;;;;;;20.11;53.13;99825.38;1746453;82;20987;-44
2022/07/03 04:36:41;;;;;;;6.08;2.62;;;;;;;20.17;53.34;99818.23;1746385;82;21030;-44
2022/07/03 04:39:08;;;;;;;5.17;2.55;;;;;;;20.20;53.45;99821.53;1746586;82;21637;-44
2022/07/03 04:41:35;;;;;;;8.05;2.50;;;;;;;20.25;54.08;99818.31;1746373;82;21094;-44
2022/07/03 04:44:02;;;;;;;5.47;2.65;;;;;;;20.34;54.07;99817.24;1746563;82;21514;-43
2022/07/03 04:46:29;;;;;;;4.47;2.37;;;;;;;20.44;53.29;99823.02;1746435;82;20928;-43
2022/07/03 04:48:56;;;;;;;4.75;2.27;;;;;;;20.51;53.10;99818.80;1746608;82;20967;-43
2022/07/03 04:51:23;;;;;;;6.10;2.30;;;;;;;20.58;53.20;99825.56;1746495;82;21249;-44
2022/07/03 04:53:50;;;;;;;5.05;2.45;;;;;;;20.64;53.22;99823.91;1746259;82;21444;-44
2022/07/03 04:56:17;;;;;;;5.28;2.40;;;;;;;20.72;52.82;99822.01;1739425;82;20988;-44
2022/07/03 04:58:45;;;;;;;2.92;2.08;;;;;;;20.80;52.60;99821.31;1733451;82;20940;-44
2022/07/03 05:01:13;;;;;;;3.52;2.20;;;;;;;20.90;52.07;99827.86;1733504;82;21043;-44
2022/07/03 05:03:40;;;;;;;3.55;2.30;;;;;;;20.98;52.02;99821.81;1733374;82;21989;-44
2022/07/03 05:06:07;;;;;;;3.83;2.02;;;;;;;21.06;51.95;99820.48;1733512;82;21546;-44
2022/07/03 05:08:35;;;;;;;6.17;2.20;;;;;;;21.15;51.45;99826.30;1732887;82;21013;-43
2022/07/03 05:11:01;;;;;;;4.25;2.00;;;;;;;21.22;50.55;99821.25;1732973;82;21003;-43
2022/07/03 05:13:29;;;;;;;3.05;1.98;;;;;;;21.28;50.12;99825.09;1732946;82;21031;-43
2022/07/03 05:15:56;;;;;;;2.80;2.08;;;;;;;21.33;50.33;99826.59;1733085;82;21913;-43
2022/07/03 05:18:23;;;;;;;3.02;1.80;;;;;;;21.41;50.45;99829.39;1732846;82;20984;-43
2022/07/03 05:20:50;;;;;;;6.12;2.15;;;;;;;21.48;49.43;99827.30;1732849;82;20967;-43
2022/07/03 05:23:17;;;;;;;4.17;1.98;;;;;;;21.54;47.94;99824.21;1732728;82;21004;-43
2022/07/03 05:25:45;;;;;;;4.05;2.40;;;;;;;21.57;48.30;99824.77;1732864;82;21087;-43
2022/07/03 05:28:12;;;;;;;3.55;2.20;;;;;;;21.64;48.80;99830.14;1732656;82;21087;-44
2022/07/03 05:30:39;;;;;;;5.17;2.33;;;;;;;21.73;49.20;99830.20;1732876;82;21090;-43
2022/07/03 05:33:06;;;;;;;4.40;2.10;;;;;;;21.76;48.22;99832.89;1732815;82;20924;-43
2022/07/03 05:35:33;;;;;;;4.22;2.25;;;;;;;21.79;47.88;99832.03;1732697;82;21474;-44
2022/07/03 05:38:01;;;;;;;5.75;2.20;;;;;;;21.82;48.06;99831.80;1732821;82;21111;-44
2022/07/03 05:40:28;;;;;;;3.02;2.05;;;;;;;21.86;48.35;99830.52;1732615;82;21326;-44
2022/07/03 05:42:56;;;;;;;3.08;2.17;;;;;;;21.95;48.36;99827.22;1732721;82;20995;-44
2022/07/03 05:45:23;;;;;;;3.47;2.45;;;;;;;22.06;48.71;99821.67;1732588;82;21082;-44
2022/07/03 05:47:50;;;;;;;5.80;2.40;;;;;;;22.20;48.69;99830.27;1732789;82;20956;-44
2022/07/03 05:50:17;;;;;;;11.25;2.52;;;;;;;22.35;48.70;99822.45;1732648;82;21529;-44
2022/07/03 05:52:44;;;;;;;3.17;2.30;;;;;;;22.49;48.72;99816.02;1732727;82;21127;-44
2022/07/03 05:55:11;;;;;;;5.62;2.30;;;;;;;22.65;47.59;99818.03;1710025;82;21050;-44
2022/07/03 05:57:38;;;;;;;7.08;2.30;;;;;;;22.77;47.34;99810.46;1703266;83;21482;-44
2022/07/03 06:00:07;;;;;;;2.98;2.20;;;;;;;22.89;47.60;99805.64;1703415;84;21000;-44
2022/07/03 06:02:34;;;;;;;5.03;2.12;;;;;;;23.04;47.85;99804.69;1703492;84;21080;-44
2022/07/03 06:05:01;;;;;;;4.47;2.20;;;;;;;23.18;48.05;99806.32;1703491;84;21316;-44
2022/07/03 06:07:28;;;;;;;6.75;2.20;;;;;;;23.32;47.80;99792.12;1703436;84;21593;-44
2022/07/03 06:09:55;;;;;;;5.35;2.33;;;;;;;23.45;46.76;99799.90;1703576;84;21530;-44
2022/07/03 06:12:22;;;;;;;4.20;2.20;;;;;;;23.53;46.62;99798.48;1703542;84;20920;-44
2022/07/03 06:14:49;;;;;;;3.17;2.20;;;;;;;23.63;45.17;99800.19;1703513;84;21117;-44
2022/07/03 06:17:16;;;;;;;4.60;2.20;;;;;;;23.67;45.77;99798.09;1703559;84;21248;-44
2022/07/03 06:19:43;;;;;;;3.27;2.15;;;;;;;23.72;45.75;99800.33;1703506;84;21776;-44
2022/07/03 06:22:10;;;;;;;4.60;2.20;;;;;;;23.79;45.77;99797.98;1703407;84;21548;-44
2022/07/03 06:24:37;;;;;;;3.58;2.17;;;;;;;23.90;45.12;99793.53;1698559;84;21024;-44
2022/07/03 06:27:05;;;;;;;2.77;2.08;;;;;;;24.06;44.46;99792.09;1703655;84;21095;-44
2022/07/03 06:29:33;;;;;;;5.03;2.12;;;;;;;24.21;44.29;99791.23;1703536;84;22007;-44
2022/07/03 06:32:00;;;;;;;4.30;2.00;;;;;;;24.37;44.34;99798.69;1703630;84;20967;-44
2022/07/03 06:34:27;;;;;;;5.22;2.35;;;;;;;24.49;42.79;99788.23;1703559;84;20995;-44
2022/07/03 06:36:54;;;;;;;2.47;1.95;;;;;;;24.59;43.57;99791.25;1703854;84;21031;-45
2022/07/03 06:39:21;;;;;;;5.62;2.30;;;;;;;24.71;42.99;99788.92;1703681;84;21510;-45
2022/07/03 06:41:48;;;;;;;5.12;2.00;;;;;;;24.80;42.04;99797.34;1740772;82;21144;-44
2022/07/03 06:44:16;;;;;;;5.42;2.20;;;;;;;24.84;41.19;99793.84;1743597;82;20908;-44
2022/07/03 06:46:43;;;;;;;3.55;2.27;;;;;;;24.87;40.93;99794.39;1743541;82;20940;-45
2022/07/03 06:49:10;;;;;;;4.78;2.20;;;;;;;24.89;41.47;99794.09;1743696;82;21037;-44
2022/07/03 06:51:37;;;;;;;3.85;2.50;;;;;;;24.93;41.09;99795.38;1744043;82;20973;-44
2022/07/03 06:54:06;;;;;;;3.12;2.30;;;;;;;24.99;41.62;99796.34;1743937;82;21446;-44
2022/07/03 06:56:33;;;;;;;7.92;2.37;;;;;;;25.04;41.61;99794.40;1743491;82;20895;-44
2022/07/03 06:59:00;;;;;;;5.12;2.12;;;;;;;25.12;41.06;99801.28;1743422;82;21064;-44
2022/07/03 07:01:27;;;;;;;3.62;2.20;;;;;;;25.26;40.34;99795.25;1743487;82;21048;-44
2022/07/03 07:03:54;;;;;;;7.25;2.30;;;;;;;25.41;40.12;99797.70;1743494;82;21024;-44
2022/07/03 07:06:21;;;;;;;3.52;2.25;;;;;;;25.52;40.59;99798.09;1743642;82;21244;-44
2022/07/03 07:08:48;;;;;;;3.42;2.20;;;;;;;25.64;39.55;99795.75;1743521;82;21024;-44
2022/07/03 07:11:15;;;;;;;5.03;2.22;;;;;;;25.69;39.71;99801.50;1743520;82;20906;-44
2022/07/03 07:13:42;;;;;;;5.50;2.30;;;;;;;25.76;39.60;99795.67;1743583;82;21578;-44
2022/07/03 07:16:09;;;;;;;2.98;2.22;;;;;;;25.87;39.40;99792.52;1743494;82;21041;-44
2022/07/03 07:18:35;;;;;;;3.00;2.02;;;;;;;25.96;40.12;99792.57;1743518;82;21515;-45
2022/07/03 07:21:03;;;;;;;4.47;2.10;;;;;;;26.03;39.39;99791.55;1743276;82;21504;-44
2022/07/03 07:23:30;;;;;;;4.90;2.12;;;;;;;26.06;38.92;99792.79;1743455;82;21020;-44
2022/07/03 07:25:57;;;;;;;3.17;2.35;;;;;;;26.08;38.95;99790.95;1743473;82;20961;-44
2022/07/03 07:28:25;;;;;;;7.22;2.20;;;;;;;26.11;39.36;99796.38;1743438;82;21045;-44
2022/07/03 07:30:56;;;;;;;3.65;2.37;;;;;;;26.17;38.86;99794.56;1743497;82;21210;-44
2022/07/03 07:33:23;;;;;;;3.33;2.05;;;;;;;26.23;38.39;99796.95;1743434;82;21020;-45
2022/07/03 07:35:50;;;;;;;4.85;2.37;;;;;;;26.33;38.86;99797.77;1743561;82;20953;-45
2022/07/03 07:38:18;;;;;;;7.40;2.22;;;;;;;26.46;39.43;99793.49;1743264;82;21395;-44
2022/07/03 07:40:45;;;;;;;4.90;2.17;;;;;;;26.57;37.68;99796.64;1743541;82;21041;-44
2022/07/03 07:43:12;;;;;;;4.90;2.30;;;;;;;26.61;38.37;99796.66;1743325;82;23174;-45
2022/07/03 07:45:39;;;;;;;5.20;2.30;;;;;;;26.67;37.45;99796.83;1743633;82;21634;-45
2022/07/03 07:48:07;;;;;;;5.85;2.30;;;;;;;26.73;37.61;99788.02;1743696;82;21503;-44
2022/07/03 07:50:34;;;;;;;7.47;2.45;;;;;;;26.78;37.18;99799.94;1743377;82;21456;-44
2022/07/03 07:53:01;;;;;;;2.27;2.08;;;;;;;26.80;37.08;99796.88;1743548;82;21033;-44
2022/07/03 07:55:28;;;;;;;4.45;2.30;;;;;;;26.78;37.37;99795.77;1743395;82;21286;-44
2022/07/03 07:57:55;;;;;;;5.70;2.50;;;;;;;26.74;37.61;99795.14;1743419;82;21025;-44
2022/07/03 08:00:22;;;;;;;4.95;2.50;;;;;;;26.69;38.37;99794.34;1743412;82;20981;-44
2022/07/03 08:05:37;;;;;;;6.72;2.47;;;;;;;26.62;37.33;99796.04;1743513;82;21033;-44
2022/07/03 08:08:09;;;;;;;4.08;2.58;;;;;;;26.53;38.21;99794.62;1743369;82;23246;-45
2022/07/03 08:10:47;;;;;;;3.62;2.35;;;;;;;26.48;38.70;99796.60;1743284;82;21504;-44
2022/07/03 08:13:15;;;;;;;3.33;2.77;;;;;;;26.46;38.49;99794.88;1743789;82;21016;-45
2022/07/03 08:15:43;;;;;;;3.85;2.40;;;;;;;26.41;38.96;99791.30;1743641;82;21060;-45
2022/07/03 08:18:10;;;;;;;6.42;2.67;;;;;;;26.36;39.35;99790.67;1743765;82;21617;-45
2022/07/03 08:20:37;;;;;;;2.85;2.40;;;;;;;26.34;39.86;99793.73;1743757;82;21141;-44
2022/07/03 08:23:04;;;;;;;3.92;2.72;;;;;;;26.31;40.00;99798.83;1743543;82;21012;-45
2022/07/03 08:25:32;;;;;;;2.90;2.40;;;;;;;26.29;40.14;99797.88;1743587;82;21531;-44
2022/07/03 08:27:59;;;;;;;4.55;3.08;;;;;;;26.27;40.38;99798.20;1743764;82;20910;-44
2022/07/03 08:30:26;;;;;;;5.08;3.02;;;;;;;26.23;40.45;99796.95;1743529;82;21000;-44
2022/07/03 08:32:55;;;;;;;6.90;3.15;;;;;;;26.20;40.57;99796.42;1743609;82;21137;-44
2022/07/03 08:35:22;;;;;;;4.08;2.92;;;;;;;26.16;41.12;99795.01;1743208;82;20934;-45
2022/07/03 08:37:50;;;;;;;5.08;2.95;;;;;;;26.10;41.16;99794.04;1743454;82;21077;-45
2022/07/03 08:40:18;;;;;;;6.10;2.70;;;;;;;26.04;41.49;99791.09;1743345;82;21052;-45
2022/07/03 08:42:53;;;;;;;7.28;2.95;;;;;;;25.97;42.97;99791.34;1743494;82;21562;-44
2022/07/03 08:45:21;;;;;;;6.58;2.90;;;;;;;25.91;43.76;99795.93;1743431;82;21283;-45
2022/07/03 08:47:48;;;;;;;3.37;2.60;;;;;;;25.84;44.87;99789.27;1743417;82;21039;-44
2022/07/03 08:50:17;;;;;;;4.72;2.72;;;;;;;25.82;44.73;99784.77;1743666;82;20969;-45
2022/07/03 08:52:45;;;;;;;5.25;2.77;;;;;;;25.81;44.89;99792.92;1743611;82;20988;-45
2022/07/03 08:55:15;;;;;;;3.67;2.90;;;;;;;25.75;45.16;99790.59;1743497;82;21053;-44
2022/07/03 08:57:43;;;;;;;;;;;;;;;25.68;45.88;99795.00;1749119;82;23137;-44
2022/07/03 09:00:13;;;;;;;5.37;3.20;;;;;;;25.63;46.55;99790.02;1749033;82;20158;-44
2022/07/03 09:02:43;;;;;;;3.70;2.87;;;;;;;25.47;46.46;99786.16;1749031;82;21026;-44
2022/07/03 09:05:11;;;;;;;2.98;2.70;;;;;;;25.41;46.96;99792.16;1749150;82;21542;-45
2022/07/03 09:07:40;;;;;;;4.78;2.95;;;;;;;25.39;47.50;99785.48;1749068;81;21036;-45
2022/07/03 09:10:12;;;;;;;9.70;3.05;;;;;;;25.38;47.78;99794.42;1749201;81;21471;-45
2022/07/03 09:12:39;;;;;;;3.47;2.95;;;;;;;25.34;47.99;99797.94;1749087;82;21020;-45
2022/07/03 09:15:08;;;;;;;7.22;3.02;;;;;;;25.27;48.31;99795.39;1749013;81;20969;-44
2022/07/03 09:17:35;;;;;;;5.58;3.00;;;;;;;25.21;48.51;99801.98;1722104;82;21017;-45
2022/07/03 09:20:07;;;;;;;3.65;3.10;;;;;;;25.14;49.06;99797.43;1749168;82;21010;-44
2022/07/03 09:22:36;;;;;;;3.90;3.10;;;;;;;25.12;50.16;99798.51;1749036;81;21216;-45
2022/07/03 09:25:14;;;;;;;7.92;3.05;;;;;;;25.05;51.06;99807.05;1749113;82;21508;-45
2022/07/03 09:27:52;;;;;;;8.98;3.30;;;;;;;25.02;51.79;99805.19;1749373;81;21032;-45
2022/07/03 09:30:19;;;;;;;6.03;3.30;;;;;;;24.95;52.05;99803.41;1749297;82;21328;-45
2022/07/03 09:32:48;;;;;;;4.58;3.25;;;;;;;24.93;52.04;99806.48;1749242;81;21045;-45
2022/07/03 09:35:26;;;;;;;5.67;3.22;;;;;;;24.89;51.23;99801.63;1749501;82;21109;-45
2022/07/03 09:38:01;;;;;;;5.85;3.33;;;;;;;24.83;50.85;99804.19;1749259;82;21005;-45
2022/07/03 09:40:48;;;;;;;5.90;3.67;;;;;;;24.79;51.16;99802.72;1749282;82;21028;-45
2022/07/03 09:43:15;;;;;;;7.15;3.50;;;;;;;24.78;51.76;99802.58;1726050;82;21083;-45
2022/07/03 09:45:59;;;;;;;7.00;3.40;;;;;;;24.75;51.55;99803.45;1748986;81;21528;-45
2022/07/03 09:48:35;;;;;;;5.55;3.20;;;;;;;24.73;52.07;99800.36;1749020;81;21128;-45
2022/07/03 09:51:23;;;;;;;4.12;2.92;;;;;;;24.72;52.13;99796.03;1749037;82;21048;-45
2022/07/03 09:54:00;;;;;;;4.10;3.70;;;;;;;24.72;51.89;99791.88;1749063;82;21092;-45
2022/07/03 09:56:33;;;;;;;6.40;3.33;;;;;;;24.76;51.60;99784.98;1749361;81;21583;-45
2022/07/03 09:59:07;;;;;;;4.28;3.20;;;;;;;24.81;51.76;99788.59;1748910;81;21077;-45
2022/07/03 10:01:38;;;;;;;4.60;3.17;;;;;;;24.85;50.94;99792.63;1749103;82;21311;-45
2022/07/03 10:04:16;;;;;;;4.28;2.83;;;;;;;24.89;50.94;99789.93;1748711;82;20969;-45
2022/07/03 10:06:53;;;;;;;5.35;3.30;;;;;;;24.93;50.72;99790.58;1749066;81;20937;-45
2022/07/03 10:09:23;;;;;;;7.00;3.60;;;;;;;24.97;50.78;99788.49;1748952;82;21088;-45
2022/07/03 10:11:51;;;;;;;7.53;3.45;;;;;;;24.99;50.77;99786.03;1749310;81;21087;-45
2022/07/03 10:14:20;;;;;;;6.37;3.60;;;;;;;25.03;50.83;99788.68;1748934;81;21295;-44
2022/07/03 10:16:47;;;;;;;5.65;3.60;;;;;;;25.06;50.96;99790.58;1749371;81;20977;-45
2022/07/03 10:19:20;;;;;;;4.75;3.35;;;;;;;25.12;51.06;99790.80;1748928;81;20989;-45
2022/07/03 10:21:58;;;;;;;5.25;3.50;;;;;;;25.15;50.93;99787.11;1749441;82;21599;-45
2022/07/03 10:24:28;;;;;;;5.55;3.92;;;;;;;25.19;50.84;99789.15;1749281;81;21037;-45
2022/07/03 10:26:56;;;;;;;8.00;4.70;;;;;;;25.22;50.63;99790.44;1749531;81;21103;-45
2022/07/03 10:29:26;;;;;;;5.50;3.87;;;;;;;25.25;50.46;99795.08;1749035;81;20929;-45
2022/07/03 10:31:53;;;;;;;;;;;;;;;25.26;51.07;99795.86;1752199;81;20985;-45
2022/07/03 10:34:23;;;;;;;7.17;3.85;;;;;;;25.24;50.15;99793.52;1749061;82;20178;-45
2022/07/03 10:37:00;;;;;;;5.20;3.83;;;;;;;25.14;51.02;99783.56;1749362;82;21028;-45
2022/07/03 10:39:51;;;;;;;7.40;4.40;;;;;;;25.18;50.71;99777.27;1749066;82;21133;-45
2022/07/03 10:45:21;;;;;;;6.33;4.08;;;;;;;25.34;49.84;99770.79;1693511;84;21103;-44
2022/07/03 10:47:50;;;;;;;6.55;3.83;;;;;;;25.44;48.25;99757.93;1693663;84;21079;-45
2022/07/03 10:50:23;;;;;;;6.95;3.98;;;;;;;25.58;48.65;99756.67;1713800;82;21531;-45
2022/07/03 10:52:50;;;;;;;8.53;4.10;;;;;;;25.74;48.44;99756.48;1748722;82;21226;-45
2022/07/03 10:55:18;;;;;;;6.25;3.60;;;;;;;25.89;47.31;99753.95;1748924;82;20989;-45
2022/07/03 10:58:08;;;;;;;4.62;3.58;;;;;;;26.03;47.14;99754.81;1747158;82;20997;-45
2022/07/03 11:00:56;;;;;;;5.55;3.75;;;;;;;26.14;46.14;99755.16;1743396;82;21104;-45
2022/07/03 11:04:01;;;;;;;6.50;3.87;;;;;;;26.28;46.55;99749.10;1743348;82;21523;-45
2022/07/03 11:06:48;;;;;;;11.25;3.87;;;;;;;26.45;46.77;99750.23;1743385;82;21535;-45
2022/07/03 11:09:15;;;;;;;5.28;3.37;;;;;;;26.65;45.83;99747.22;1743240;82;21490;-45
2022/07/03 11:11:55;;;;;;;7.42;3.37;;;;;;;26.77;42.41;99740.00;1741300;82;21484;-44
2022/07/03 11:14:27;;;;;;;3.42;3.12;;;;;;;26.91;43.42;99732.48;1743152;82;21037;-45
2022/07/03 11:17:21;;;;;;;4.80;3.10;;;;;;;27.10;40.76;99729.87;1742377;82;21026;-45
2022/07/03 11:22:46;;;;;;;5.85;3.60;;;;;;;27.58;40.36;99729.57;1666319;84;21009;-44
2022/07/03 11:25:13;;;;;;;5.10;2.98;;;;;;;27.87;40.04;99730.45;1714544;82;21017;-44
2022/07/03 11:27:41;;;;;;;5.40;3.58;;;;;;;28.15;38.52;99723.41;1743546;82;21570;-44
2022/07/03 11:30:12;;;;;;;4.47;3.10;;;;;;;28.48;37.65;99726.98;1743404;82;21052;-44
2022/07/03 11:32:52;;;;;;;6.72;3.37;;;;;;;28.78;37.64;99719.55;1743739;82;21860;-44
2022/07/03 11:35:51;;;;;;;5.92;3.50;;;;;;;29.12;36.81;99712.64;1743804;82;20977;-44
2022/07/03 11:38:25;;;;;;;4.85;2.90;;;;;;;29.37;36.48;99707.97;1739525;82;20977;-44
2022/07/03 11:40:55;;;;;;;5.12;3.30;;;;;;;29.72;36.25;99707.47;1743523;82;21040;-44
2022/07/03 11:43:22;;;;;;;5.22;3.30;;;;;;;30.04;35.77;99704.96;1743505;82;21539;-44
2022/07/03 11:45:50;;;;;;;5.50;3.55;;;;;;;30.41;35.39;99708.83;1743571;82;21516;-44
2022/07/03 11:48:23;;;;;;;3.92;3.05;;;;;;;30.67;33.97;99708.20;1743397;82;20985;-44
2022/07/03 11:50:50;;;;;;;4.87;3.35;;;;;;;30.77;34.56;99698.42;1743552;82;21548;-44
2022/07/03 11:53:20;;;;;;;4.72;3.40;;;;;;;30.91;35.04;99694.15;1743469;82;21091;-44
2022/07/03 11:55:51;;;;;;;3.80;3.50;;;;;;;31.06;35.10;99701.10;1743802;82;20964;-44
2022/07/03 11:58:18;;;;;;;3.80;3.33;;;;;;;31.17;33.92;99695.64;1742841;82;21140;-44
2022/07/03 12:00:45;;;;;;;4.62;3.67;;;;;;;31.08;33.23;99702.80;1743354;82;21021;-44
2022/07/03 12:03:22;;;;;;;4.45;3.47;;;;;;;30.87;33.26;99705.42;1743355;82;20993;-44
2022/07/03 12:05:55;;;;;;;4.03;3.35;;;;;;;30.55;34.03;99712.24;1743309;82;21511;-44